createdAt,value
2023-01-18T00:01:21.670Z,16.54
2023-01-18T00:03:49.424Z,16.70
2023-01-18T00:06:18.132Z,16.50
2023-01-18T00:08:46.788Z,16.74
2023-01-18T00:11:18.487Z,16.73
2023-01-18T00:13:47.345Z,16.66
2023-01-18T00:16:18.852Z,16.69
2023-01-18T00:18:58.176Z,16.66
2023-01-18T00:21:27.602Z,16.35
2023-01-18T00:23:57.060Z,16.57
2023-01-18T00:26:25.010Z,16.54
2023-01-18T00:28:52.804Z,16.51
2023-01-18T00:31:21.751Z,16.58
2023-01-18T00:33:50.732Z,16.56
2023-01-18T00:36:19.197Z,16.55
2023-01-18T00:38:52.392Z,16.48
2023-01-18T00:41:22.039Z,16.43
2023-01-18T00:43:50.342Z,16.41
2023-01-18T00:46:20.825Z,16.40
2023-01-18T00:48:48.657Z,16.38
2023-01-18T00:51:19.655Z,16.56
2023-01-18T00:53:47.696Z,16.40
2023-01-18T00:56:21.955Z,16.34
2023-01-18T00:58:50.201Z,16.01
2023-01-18T01:01:18.140Z,16.49
2023-01-18T01:04:04.375Z,16.32
2023-01-18T01:06:46.612Z,16.09
2023-01-18T01:09:19.345Z,16.51
2023-01-18T01:12:06.670Z,16.46
2023-01-18T01:14:55.937Z,16.45
2023-01-18T01:17:42.252Z,16.35
2023-01-18T01:20:29.648Z,16.45
2023-01-18T01:23:16.025Z,16.12
2023-01-18T01:26:02.192Z,16.26
2023-01-18T01:28:30.018Z,16.10
2023-01-18T01:31:02.907Z,15.84
2023-01-18T01:33:31.648Z,16.31
2023-01-18T01:36:05.655Z,16.07
2023-01-18T01:38:33.738Z,16.32
2023-01-18T01:41:07.965Z,16.31
2023-01-18T01:43:48.510Z,16.11
2023-01-18T01:46:53.798Z,16.22
2023-01-18T01:49:28.636Z,16.01
2023-01-18T01:52:03.394Z,15.97
2023-01-18T01:54:40.315Z,16.15
2023-01-18T01:57:13.193Z,16.11
2023-01-18T01:59:50.281Z,15.65
2023-01-18T02:02:18.083Z,15.78
2023-01-18T02:04:53.854Z,16.00
2023-01-18T02:07:22.705Z,16.06
2023-01-18T02:09:51.917Z,16.03
2023-01-18T02:12:20.084Z,15.83
2023-01-18T02:14:47.880Z,15.85
2023-01-18T02:17:42.540Z,15.92
2023-01-18T02:20:34.744Z,15.82
2023-01-18T02:23:11.526Z,15.94
2023-01-18T02:26:11.783Z,16.00
2023-01-18T02:28:41.711Z,16.01
2023-01-18T02:31:22.766Z,16.00
2023-01-18T02:34:38.480Z,15.90
2023-01-18T02:37:11.387Z,15.92
2023-01-18T02:40:11.355Z,15.94
2023-01-18T02:43:00.580Z,15.72
2023-01-18T02:46:14.752Z,15.91
2023-01-18T02:48:45.228Z,15.86
2023-01-18T02:51:13.097Z,15.72
2023-01-18T02:53:44.439Z,15.94
2023-01-18T02:56:18.092Z,15.94
2023-01-18T02:58:48.937Z,15.70
2023-01-18T03:01:28.980Z,15.89
2023-01-18T03:04:11.456Z,15.88
2023-01-18T03:06:44.415Z,15.88
2023-01-18T03:09:19.621Z,15.91
2023-01-18T03:12:47.299Z,15.89
2023-01-18T03:15:27.430Z,15.93
2023-01-18T03:18:05.625Z,15.91
2023-01-18T03:20:39.573Z,15.75
2023-01-18T03:23:38.084Z,15.92
2023-01-18T03:26:18.162Z,15.89
2023-01-18T03:29:10.240Z,15.90
2023-01-18T03:32:08.770Z,15.89
2023-01-18T03:34:51.672Z,15.87
2023-01-18T03:37:41.390Z,15.74
2023-01-18T03:40:19.896Z,15.81
2023-01-18T03:42:59.586Z,15.88
2023-01-18T03:45:56.066Z,15.76
2023-01-18T03:48:24.009Z,15.78
2023-01-18T03:51:02.664Z,15.78
2023-01-18T03:53:41.521Z,15.71
2023-01-18T03:56:43.834Z,15.75
2023-01-18T03:59:11.976Z,15.74
2023-01-18T04:01:40.217Z,15.41
2023-01-18T04:04:08.223Z,15.70
2023-01-18T04:06:36.465Z,15.39
2023-01-18T04:09:04.715Z,15.75
2023-01-18T04:11:32.376Z,15.38
2023-01-18T04:14:00.032Z,15.72
2023-01-18T04:16:27.731Z,15.59
2023-01-18T04:18:55.526Z,15.74
2023-01-18T04:21:23.431Z,15.62
2023-01-18T04:23:52.201Z,15.60
2023-01-18T04:26:20.111Z,15.69
2023-01-18T04:28:47.877Z,15.78
2023-01-18T04:31:15.760Z,15.55
2023-01-18T04:33:43.429Z,15.81
2023-01-18T04:36:11.299Z,15.66
2023-01-18T04:38:39.080Z,15.56
2023-01-18T04:41:06.932Z,15.75
2023-01-18T04:43:34.808Z,15.55
2023-01-18T04:46:04.264Z,15.77
2023-01-18T04:48:32.027Z,15.77
2023-01-18T04:50:59.976Z,15.56
2023-01-18T04:53:27.859Z,15.73
2023-01-18T04:55:55.653Z,15.75
2023-01-18T04:58:23.340Z,15.55
2023-01-18T05:00:51.118Z,15.58
2023-01-18T05:03:19.095Z,15.55
2023-01-18T05:05:46.967Z,15.78
2023-01-18T05:08:14.845Z,15.81
2023-01-18T05:10:45.533Z,15.74
2023-01-18T05:13:13.417Z,15.74
2023-01-18T05:15:41.244Z,15.63
2023-01-18T05:18:08.881Z,15.64
2023-01-18T05:20:36.683Z,15.63
2023-01-18T05:23:11.274Z,15.60
2023-01-18T05:25:39.315Z,15.69
2023-01-18T05:28:08.531Z,15.69
2023-01-18T05:30:41.670Z,15.73
2023-01-18T05:33:10.224Z,15.81
2023-01-18T05:35:38.114Z,15.46
2023-01-18T05:38:05.940Z,15.76
2023-01-18T05:40:33.833Z,15.42
2023-01-18T05:43:01.660Z,15.69
2023-01-18T05:45:29.604Z,15.70
2023-01-18T05:47:57.543Z,15.74
2023-01-18T05:50:25.416Z,15.78
2023-01-18T05:52:53.225Z,15.69
2023-01-18T05:55:21.098Z,15.78
2023-01-18T05:57:48.856Z,15.50
2023-01-18T06:00:17.213Z,15.54
2023-01-18T06:02:45.082Z,15.74
2023-01-18T06:05:12.848Z,15.62
2023-01-18T06:07:42.361Z,15.73
2023-01-18T06:10:11.164Z,15.72
2023-01-18T06:12:38.985Z,15.60
2023-01-18T06:15:08.189Z,15.66
2023-01-18T06:17:37.232Z,15.64
2023-01-18T06:20:06.567Z,15.29
2023-01-18T06:22:34.217Z,15.66
2023-01-18T06:25:01.895Z,15.57
2023-01-18T06:27:29.897Z,15.76
2023-01-18T06:29:57.715Z,15.51
2023-01-18T06:32:25.872Z,15.66
2023-01-18T06:34:53.634Z,15.78
2023-01-18T06:37:21.318Z,15.25
2023-01-18T06:39:49.123Z,15.83
2023-01-18T06:42:19.732Z,15.81
2023-01-18T06:44:47.622Z,15.51
2023-01-18T06:47:20.037Z,15.70
2023-01-18T06:49:48.263Z,15.90
2023-01-18T06:52:16.841Z,15.84
2023-01-18T06:54:45.053Z,15.79
2023-01-18T06:57:12.964Z,15.53
2023-01-18T06:59:40.844Z,15.87
2023-01-18T07:02:13.443Z,15.68
2023-01-18T07:04:44.451Z,15.78
2023-01-18T07:07:13.359Z,15.84
2023-01-18T07:09:43.655Z,15.66
2023-01-18T07:12:11.714Z,15.89
2023-01-18T07:14:39.836Z,15.56
2023-01-18T07:17:09.162Z,15.88
2023-01-18T07:19:39.950Z,15.93
2023-01-18T07:22:07.865Z,15.58
2023-01-18T07:24:35.581Z,15.65
2023-01-18T07:27:04.575Z,15.74
2023-01-18T07:29:32.444Z,15.50
2023-01-18T07:32:01.317Z,15.50
2023-01-18T07:34:29.078Z,15.31
2023-01-18T07:36:56.841Z,15.63
2023-01-18T07:39:24.923Z,15.84
2023-01-18T07:41:52.696Z,15.79
2023-01-18T07:44:20.410Z,15.77
2023-01-18T07:46:48.138Z,15.82
2023-01-18T07:49:15.919Z,15.63
2023-01-18T07:51:43.828Z,15.90
2023-01-18T07:54:11.791Z,15.64
2023-01-18T07:56:40.519Z,15.84
2023-01-18T07:59:08.338Z,15.50
2023-01-18T08:01:36.296Z,15.80
2023-01-18T08:04:05.336Z,15.52
2023-01-18T08:06:34.083Z,15.48
2023-01-18T08:09:01.777Z,15.67
2023-01-18T08:11:29.591Z,15.71
2023-01-18T08:13:58.905Z,15.70
2023-01-18T08:16:27.143Z,15.28
2023-01-18T08:18:55.013Z,15.60
2023-01-18T08:21:24.350Z,15.64
2023-01-18T08:23:55.249Z,15.63
2023-01-18T08:26:23.327Z,15.52
2023-01-18T08:28:51.236Z,15.70
2023-01-18T08:31:21.602Z,15.60
2023-01-18T08:33:50.100Z,15.65
2023-01-18T08:36:20.012Z,15.64
2023-01-18T08:38:52.867Z,15.51
2023-01-18T08:41:21.658Z,15.35
2023-01-18T08:43:51.319Z,15.73
2023-01-18T08:46:19.836Z,15.67
2023-01-18T08:48:52.161Z,15.76
2023-01-18T08:51:21.985Z,15.79
2023-01-18T08:53:51.890Z,15.76
2023-01-18T08:56:20.561Z,15.53
2023-01-18T08:58:48.726Z,15.39
2023-01-18T09:01:16.886Z,15.36
2023-01-18T09:03:45.555Z,15.52
2023-01-18T09:06:13.321Z,15.62
2023-01-18T09:08:40.961Z,15.37
2023-01-18T09:11:10.686Z,15.33
2023-01-18T09:13:54.606Z,15.58
2023-01-18T09:16:27.345Z,15.63
2023-01-18T09:18:56.453Z,15.45
2023-01-18T09:21:24.772Z,15.44
2023-01-18T09:23:52.552Z,15.53
2023-01-18T09:26:21.266Z,15.57
2023-01-18T09:28:52.646Z,15.68
2023-01-18T09:31:22.475Z,15.73
2023-01-18T09:33:54.007Z,15.60
2023-01-18T09:36:26.751Z,15.55
2023-01-18T09:38:55.955Z,15.74
2023-01-18T09:41:37.870Z,15.52
2023-01-18T09:44:08.686Z,15.66
2023-01-18T09:46:42.579Z,15.70
2023-01-18T09:49:21.205Z,15.74
2023-01-18T09:51:49.110Z,15.78
2023-01-18T09:54:29.698Z,15.84
2023-01-18T09:57:08.211Z,15.83
2023-01-18T09:59:49.703Z,15.89
2023-01-18T10:02:21.507Z,15.60
2023-01-18T10:05:05.003Z,15.71
2023-01-18T10:07:35.504Z,15.83
2023-01-18T10:10:05.246Z,15.88
2023-01-18T10:12:47.115Z,16.01
2023-01-18T10:15:26.780Z,15.99
2023-01-18T10:17:58.948Z,16.00
2023-01-18T10:20:35.760Z,16.13
2023-01-18T10:23:32.111Z,16.16
2023-01-18T10:26:09.432Z,16.11
2023-01-18T10:28:50.872Z,16.13
2023-01-18T10:31:40.393Z,15.77
2023-01-18T10:34:21.198Z,16.03
2023-01-18T10:36:57.381Z,16.14
2023-01-18T10:39:30.306Z,16.14
2023-01-18T10:42:02.749Z,15.83
2023-01-18T10:44:31.911Z,16.02
2023-01-18T10:47:01.453Z,16.21
2023-01-18T10:49:36.895Z,16.11
2023-01-18T10:52:31.182Z,16.12
2023-01-18T10:55:01.924Z,16.33
2023-01-18T10:57:34.405Z,16.34
2023-01-18T11:00:11.369Z,16.36
2023-01-18T11:02:40.181Z,16.27
2023-01-18T11:05:31.418Z,16.37
2023-01-18T11:08:20.331Z,16.14
2023-01-18T11:11:00.316Z,16.28
2023-01-18T11:13:28.696Z,16.27
2023-01-18T11:16:03.857Z,16.25
2023-01-18T11:18:31.982Z,16.09
2023-01-18T11:20:59.887Z,15.92
2023-01-18T11:23:38.566Z,16.17
2023-01-18T11:26:20.390Z,16.32
2023-01-18T11:29:14.095Z,16.32
2023-01-18T11:31:49.103Z,16.15
2023-01-18T11:34:33.749Z,16.07
2023-01-18T11:37:03.023Z,16.22
2023-01-18T11:39:36.350Z,16.43
2023-01-18T11:42:22.701Z,16.48
2023-01-18T11:44:50.599Z,16.51
2023-01-18T11:47:46.477Z,16.53
2023-01-18T11:50:34.243Z,16.58
2023-01-18T11:53:16.634Z,16.34
2023-01-18T11:56:06.536Z,16.62
2023-01-18T11:58:36.403Z,16.55
2023-01-18T12:01:46.147Z,16.69
2023-01-18T12:04:33.475Z,16.75
2023-01-18T12:07:10.834Z,16.77
2023-01-18T12:09:48.184Z,16.80
2023-01-18T12:12:36.206Z,16.83
2023-01-18T12:15:22.859Z,16.82
2023-01-18T12:18:14.330Z,16.85
2023-01-18T12:21:07.349Z,16.87
2023-01-18T12:23:40.281Z,16.88
2023-01-18T12:26:29.963Z,16.92
2023-01-18T12:29:32.306Z,16.96
2023-01-18T12:32:15.359Z,16.94
2023-01-18T12:35:24.064Z,16.85
2023-01-18T12:37:58.825Z,16.92
2023-01-18T12:40:48.952Z,16.91
2023-01-18T12:43:32.218Z,16.93
2023-01-18T12:46:09.186Z,16.91
2023-01-18T12:48:50.146Z,16.96
2023-01-18T12:51:22.639Z,16.63
2023-01-18T12:54:30.509Z,17.04
2023-01-18T12:57:04.773Z,17.04
2023-01-18T12:59:51.485Z,17.04
2023-01-18T13:02:34.860Z,17.05
2023-01-18T13:05:10.030Z,17.10
2023-01-18T13:07:42.515Z,17.14
2023-01-18T13:10:23.354Z,17.25
2023-01-18T13:12:53.705Z,17.26
2023-01-18T13:15:48.943Z,17.40
2023-01-18T13:18:21.919Z,17.36
2023-01-18T13:21:10.429Z,17.13
2023-01-18T13:23:44.349Z,17.24
2023-01-18T13:26:26.339Z,16.95
2023-01-18T13:29:22.450Z,17.19
2023-01-18T13:31:51.439Z,17.17
2023-01-18T13:34:34.020Z,17.17
2023-01-18T13:37:14.254Z,17.18
2023-01-18T13:39:47.711Z,17.02
2023-01-18T13:42:21.706Z,17.18
2023-01-18T13:45:06.272Z,16.77
2023-01-18T13:47:42.936Z,17.22
2023-01-18T13:50:29.248Z,17.31
2023-01-18T13:53:18.859Z,17.24
2023-01-18T13:55:49.209Z,17.44
2023-01-18T13:58:27.143Z,17.50
2023-01-18T14:00:58.657Z,17.54
2023-01-18T14:03:43.760Z,17.55
2023-01-18T14:06:25.706Z,17.54
2023-01-18T14:09:07.749Z,17.72
2023-01-18T14:11:42.516Z,17.73
2023-01-18T14:14:17.632Z,17.72
2023-01-18T14:17:08.869Z,17.52
2023-01-18T14:20:04.209Z,17.49
2023-01-18T14:22:56.889Z,17.18
2023-01-18T14:25:53.878Z,17.47
2023-01-18T14:28:34.848Z,17.34
2023-01-18T14:31:06.473Z,17.37
2023-01-18T14:33:38.300Z,17.37
2023-01-18T14:36:08.672Z,17.31
2023-01-18T14:38:37.253Z,17.24
2023-01-18T14:41:10.320Z,17.36
2023-01-18T14:43:45.016Z,17.34
2023-01-18T14:46:17.020Z,17.23
2023-01-18T14:48:57.471Z,17.33
2023-01-18T14:51:28.388Z,17.40
2023-01-18T14:54:00.899Z,17.34
2023-01-18T14:56:32.012Z,17.19
2023-01-18T14:59:03.489Z,16.99
2023-01-18T15:01:39.716Z,17.41
2023-01-18T15:04:21.498Z,17.30
2023-01-18T15:06:52.651Z,17.40
2023-01-18T15:09:22.492Z,17.17
2023-01-18T15:11:53.670Z,17.40
2023-01-18T15:14:34.880Z,17.32
2023-01-18T15:17:08.883Z,17.26
2023-01-18T15:19:46.447Z,17.15
2023-01-18T15:22:17.157Z,17.40
2023-01-18T15:24:46.499Z,17.48
2023-01-18T15:27:19.727Z,17.46
2023-01-18T15:30:14.217Z,17.42
2023-01-18T15:32:42.448Z,17.46
2023-01-18T15:35:14.800Z,17.40
2023-01-18T15:37:42.643Z,17.30
2023-01-18T15:40:13.290Z,17.46
2023-01-18T15:42:59.516Z,17.48
2023-01-18T15:45:33.214Z,17.17
2023-01-18T15:48:10.790Z,17.42
2023-01-18T15:50:49.774Z,17.35
2023-01-18T15:53:33.252Z,17.40
2023-01-18T15:56:15.623Z,17.24
2023-01-18T15:58:46.214Z,17.47
2023-01-18T16:01:14.065Z,17.45
2023-01-18T16:04:20.091Z,17.46
2023-01-18T16:06:48.107Z,17.47
2023-01-18T16:09:16.487Z,17.46
2023-01-18T16:11:54.108Z,17.43
2023-01-18T16:14:28.140Z,17.53
2023-01-18T16:17:11.210Z,17.56
2023-01-18T16:19:44.524Z,17.51
2023-01-18T16:22:27.512Z,17.60
2023-01-18T16:25:15.223Z,17.60
2023-01-18T16:27:48.786Z,17.59
2023-01-18T16:30:21.484Z,17.56
2023-01-18T16:32:49.809Z,17.29
2023-01-18T16:35:23.041Z,17.57
2023-01-18T16:37:52.119Z,17.37
2023-01-18T16:40:22.588Z,17.56
2023-01-18T16:43:02.157Z,17.54
2023-01-18T16:45:33.871Z,17.34
2023-01-18T16:48:02.362Z,17.40
2023-01-18T16:50:31.504Z,17.50
2023-01-18T16:52:59.522Z,17.40
2023-01-18T16:55:27.289Z,17.43
2023-01-18T16:57:55.152Z,17.41
2023-01-18T17:00:28.413Z,17.39
2023-01-18T17:02:56.682Z,17.40
2023-01-18T17:05:24.468Z,17.33
2023-01-18T17:07:52.800Z,17.27
2023-01-18T17:10:39.051Z,17.32
2023-01-18T17:13:08.484Z,17.37
2023-01-18T17:15:36.415Z,17.13
2023-01-18T17:18:05.022Z,17.31
2023-01-18T17:20:32.913Z,17.29
2023-01-18T17:23:02.283Z,17.33
2023-01-18T17:25:30.403Z,17.06
2023-01-18T17:27:58.600Z,17.28
2023-01-18T17:30:29.694Z,17.27
2023-01-18T17:32:59.547Z,17.20
2023-01-18T17:35:31.153Z,17.15
2023-01-18T17:38:05.470Z,17.07
2023-01-18T17:40:43.813Z,17.22
2023-01-18T17:43:17.044Z,17.21
2023-01-18T17:45:59.143Z,17.21
2023-01-18T17:48:29.130Z,16.96
2023-01-18T17:50:56.970Z,16.92
2023-01-18T17:53:26.195Z,17.01
2023-01-18T17:55:54.258Z,17.09
2023-01-18T17:58:21.990Z,16.88
2023-01-18T18:00:49.847Z,17.07
2023-01-18T18:03:20.579Z,16.94
2023-01-18T18:05:48.452Z,16.93
2023-01-18T18:08:19.077Z,16.66
2023-01-18T18:10:48.338Z,17.02
2023-01-18T18:13:16.457Z,16.92
2023-01-18T18:15:52.253Z,16.74
2023-01-18T18:18:23.833Z,16.97
2023-01-18T18:21:04.153Z,16.85
2023-01-18T18:23:32.067Z,16.77
2023-01-18T18:26:00.652Z,16.87
2023-01-18T18:28:29.889Z,16.91
2023-01-18T18:30:58.723Z,16.92
2023-01-18T18:33:28.140Z,16.98
2023-01-18T18:35:56.619Z,16.73
2023-01-18T18:38:26.798Z,16.83
2023-01-18T18:40:55.119Z,16.91
2023-01-18T18:43:24.708Z,16.80
2023-01-18T18:45:54.643Z,16.83
2023-01-18T18:48:25.409Z,16.90
2023-01-18T18:50:54.171Z,17.05
2023-01-18T18:53:29.573Z,17.24
2023-01-18T18:56:12.270Z,16.91
2023-01-18T18:58:40.862Z,17.35
2023-01-18T19:01:20.311Z,17.40
2023-01-18T19:03:49.477Z,17.19
2023-01-18T19:06:18.989Z,17.13
2023-01-18T19:08:47.385Z,17.10
2023-01-18T19:11:16.091Z,16.88
2023-01-18T19:13:44.964Z,16.87
2023-01-18T19:16:13.612Z,17.15
2023-01-18T19:18:41.743Z,16.98
2023-01-18T19:21:09.500Z,17.03
2023-01-18T19:23:38.620Z,15.89
2023-01-18T19:26:06.645Z,16.92
2023-01-18T19:28:34.495Z,17.16
2023-01-18T19:31:07.177Z,17.18
2023-01-18T19:33:35.668Z,17.41
2023-01-18T19:36:09.660Z,17.26
2023-01-18T19:38:57.686Z,17.40
2023-01-18T19:41:30.306Z,17.13
2023-01-18T19:43:58.070Z,17.25
2023-01-18T19:46:25.904Z,17.18
2023-01-18T19:48:58.406Z,17.35
2023-01-18T19:51:27.389Z,17.22
2023-01-18T19:53:58.104Z,17.35
2023-01-18T19:56:29.270Z,17.24
2023-01-18T19:58:57.786Z,17.24
2023-01-18T20:01:36.524Z,17.26
2023-01-18T20:04:08.115Z,17.36
2023-01-18T20:06:39.901Z,17.21
2023-01-18T20:09:18.581Z,17.27
2023-01-18T20:11:47.449Z,17.22
2023-01-18T20:14:15.648Z,17.21
2023-01-18T20:16:45.875Z,17.30
2023-01-18T20:19:15.952Z,17.27
2023-01-18T20:21:44.097Z,17.30
2023-01-18T20:24:15.362Z,17.17
2023-01-18T20:26:43.742Z,16.64
2023-01-18T20:29:11.545Z,17.22
2023-01-18T20:31:43.059Z,17.16
2023-01-18T20:34:12.685Z,17.10
2023-01-18T20:36:40.473Z,16.92
2023-01-18T20:39:12.211Z,16.68
2023-01-18T20:41:40.326Z,16.69
2023-01-18T20:44:08.828Z,16.51
2023-01-18T20:46:36.967Z,17.03
2023-01-18T20:49:05.332Z,17.04
2023-01-18T20:51:34.020Z,17.19
2023-01-18T20:54:02.470Z,17.12
2023-01-18T20:56:32.217Z,17.25
2023-01-18T20:59:00.513Z,16.99
2023-01-18T21:01:34.443Z,17.20
2023-01-18T21:04:03.967Z,16.96
2023-01-18T21:06:32.543Z,16.70
2023-01-18T21:09:01.876Z,17.00
2023-01-18T21:11:30.046Z,16.87
2023-01-18T21:13:59.500Z,17.03
2023-01-18T21:16:28.125Z,16.89
2023-01-18T21:18:57.249Z,16.92
2023-01-18T21:21:26.908Z,16.89
2023-01-18T21:23:54.789Z,16.83
2023-01-18T21:26:24.532Z,16.77
2023-01-18T21:28:54.323Z,16.62
2023-01-18T21:31:23.936Z,16.71
2023-01-18T21:33:53.059Z,16.68
2023-01-18T21:36:23.036Z,16.66
2023-01-18T21:38:51.505Z,16.68
2023-01-18T21:41:38.638Z,16.54
2023-01-18T21:44:27.197Z,16.38
2023-01-18T21:46:56.622Z,16.24
2023-01-18T21:50:15.686Z,16.45
2023-01-18T21:52:52.664Z,16.51
2023-01-18T21:55:20.244Z,16.46
2023-01-18T21:58:08.104Z,16.45
2023-01-18T22:00:40.628Z,16.22
2023-01-18T22:03:09.989Z,16.17
2023-01-18T22:05:40.709Z,16.06
2023-01-18T22:08:10.081Z,16.34
2023-01-18T22:10:38.891Z,15.90
2023-01-18T22:13:06.802Z,16.17
2023-01-18T22:15:39.150Z,16.28
2023-01-18T22:18:07.001Z,16.43
2023-01-18T22:20:36.342Z,15.88
2023-01-18T22:23:06.714Z,16.43
2023-01-18T22:25:34.615Z,16.22
2023-01-18T22:28:02.782Z,16.36
2023-01-18T22:30:30.987Z,16.38
2023-01-18T22:32:59.204Z,16.33
2023-01-18T22:35:27.315Z,16.25
2023-01-18T22:37:56.508Z,16.38
2023-01-18T22:40:26.832Z,15.93
2023-01-18T22:42:57.075Z,16.13
2023-01-18T22:45:26.379Z,16.24
2023-01-18T22:47:54.134Z,16.37
2023-01-18T22:50:25.342Z,15.89
2023-01-18T22:52:53.165Z,16.05
2023-01-18T22:55:20.886Z,16.37
2023-01-18T22:57:48.914Z,16.49
2023-01-18T23:00:17.389Z,16.12
2023-01-18T23:02:45.144Z,16.09
2023-01-18T23:05:12.928Z,15.93
2023-01-18T23:07:40.693Z,16.30
2023-01-18T23:10:09.196Z,16.20
2023-01-18T23:12:37.956Z,16.27
2023-01-18T23:15:24.709Z,16.24
2023-01-18T23:17:52.547Z,16.13
2023-01-18T23:20:23.724Z,16.17
2023-01-18T23:22:51.739Z,16.15
2023-01-18T23:25:19.753Z,16.20
2023-01-18T23:27:47.736Z,16.14
2023-01-18T23:30:16.101Z,16.18
2023-01-18T23:32:43.842Z,16.15
2023-01-18T23:35:11.641Z,15.72
2023-01-18T23:37:39.425Z,15.92
2023-01-18T23:40:27.299Z,15.80
2023-01-18T23:43:13.876Z,15.92
2023-01-18T23:46:02.731Z,15.93
2023-01-18T23:48:49.101Z,15.88
2023-01-18T23:51:35.361Z,15.75
2023-01-18T23:54:16.008Z,15.61
2023-01-18T23:56:48.229Z,15.59
2023-01-18T23:59:16.270Z,15.70
